Time;durP1;ratioP1;P1;durP2;ratioP2;P2;SDS_P1;SDS_P2;PMS_P1;PMS_P2;Temp;Humidity;BMP_temperature;BMP_pressure;BME280_temperature;BME280_humidity;BME280_pressure;Samples;Min_cycle;Max_cycle;Signal;HPM_P1;HPM_P2
2023/12/23 00:00:06;;;;;;;0.50;0.10;;;9.30;99.90;;;;;;4998343;28;20487;-79
2023/12/23 00:02:34;;;;;;;0.50;0.10;;;9.40;99.90;;;;;;5008310;28;20454;-80
2023/12/23 00:05:02;;;;;;;0.50;0.10;;;9.30;99.90;;;;;;5001190;28;20482;-80
2023/12/23 00:07:30;;;;;;;0.50;0.10;;;9.30;99.90;;;;;;5005071;28;20477;-81
2023/12/23 00:09:58;;;;;;;0.50;0.10;;;;;;;;;;4995423;28;20958;-80
2023/12/23 00:12:26;;;;;;;0.50;0.10;;;9.20;99.90;;;;;;5002365;28;20451;-81
2023/12/23 00:14:54;;;;;;;0.50;0.10;;;9.00;99.90;;;;;;5001205;28;20520;-80
2023/12/23 00:17:23;;;;;;;0.50;0.10;;;9.00;99.90;;;;;;4998781;28;20993;-80
2023/12/23 00:19:51;;;;;;;0.50;0.10;;;8.90;99.90;;;;;;5001786;28;20490;-80
2023/12/23 00:22:20;;;;;;;0.50;0.10;;;8.90;99.90;;;;;;5006756;28;20483;-81
2023/12/23 00:24:47;;;;;;;0.50;0.10;;;8.90;99.90;;;;;;5002888;28;20447;-80
2023/12/23 00:27:15;;;;;;;0.50;0.10;;;8.90;99.90;;;;;;5012491;28;20515;-82
2023/12/23 00:29:43;;;;;;;0.60;0.30;;;8.80;99.90;;;;;;5014271;28;20437;-83
2023/12/23 00:32:11;;;;;;;0.50;0.10;;;8.90;99.90;;;;;;5015655;28;20453;-82
2023/12/23 00:34:41;;;;;;;0.60;0.30;;;;;;;;;;5014033;28;20447;-81
2023/12/23 00:37:09;;;;;;;0.50;0.10;;;8.80;99.90;;;;;;5011604;28;20488;-82
2023/12/23 00:39:36;;;;;;;0.50;0.10;;;8.70;99.90;;;;;;5002180;28;20485;-82
2023/12/23 00:42:05;;;;;;;0.50;0.10;;;8.60;99.90;;;;;;4999528;28;20449;-80
2023/12/23 00:44:33;;;;;;;0.50;0.13;;;8.60;99.90;;;;;;5001854;28;20481;-80
2023/12/23 00:47:01;;;;;;;0.50;0.10;;;8.50;99.90;;;;;;5003174;28;20472;-80
2023/12/23 00:49:29;;;;;;;0.50;0.10;;;8.50;99.90;;;;;;4991302;28;20446;-79
2023/12/23 00:51:59;;;;;;;0.50;0.10;;;8.40;99.90;;;;;;4996904;28;20522;-79
2023/12/23 00:54:27;;;;;;;0.60;0.30;;;;;;;;;;5002774;28;20491;-82
2023/12/23 00:56:55;;;;;;;0.50;0.10;;;8.30;99.90;;;;;;5003160;28;20475;-80
2023/12/23 00:59:23;;;;;;;0.50;0.10;;;8.30;99.90;;;;;;5006027;28;20466;-81
2023/12/23 01:01:51;;;;;;;3.07;0.20;;;8.30;99.90;;;;;;5005133;28;20529;-81
2023/12/23 01:04:19;;;;;;;0.50;0.10;;;8.30;99.90;;;;;;5001083;28;20446;-80
2023/12/23 01:06:47;;;;;;;0.50;0.10;;;8.30;99.90;;;;;;5008918;28;20505;-81
2023/12/23 01:09:16;;;;;;;1.60;1.50;;;;;;;;;;5016689;28;20459;-81
2023/12/23 01:11:44;;;;;;;0.50;0.10;;;6.10;99.90;;;;;;5014902;28;20539;-79
2023/12/23 01:14:12;;;;;;;0.50;0.10;;;8.20;99.90;;;;;;4991336;28;20445;-80
2023/12/23 01:16:40;;;;;;;1.00;0.60;;;8.20;99.90;;;;;;4999256;28;20465;-79
2023/12/23 01:19:08;;;;;;;0.50;0.17;;;8.30;99.90;;;;;;4990404;28;20517;-81
2023/12/23 01:21:36;;;;;;;0.50;0.10;;;8.30;99.90;;;;;;4989239;28;20998;-80
2023/12/23 01:24:04;;;;;;;0.50;0.10;;;8.20;99.90;;;;;;4997748;28;20517;-80
2023/12/23 01:26:33;;;;;;;0.50;0.10;;;8.30;99.90;;;;;;5000337;28;20516;-81
2023/12/23 01:29:01;;;;;;;0.50;0.10;;;8.30;99.90;;;;;;5000235;28;20513;-80
2023/12/23 01:31:29;;;;;;;0.50;0.10;;;8.30;99.90;;;;;;5010862;28;20442;-79
2023/12/23 01:33:57;;;;;;;0.50;0.10;;;8.40;99.90;;;;;;4987465;28;20462;-79
2023/12/23 01:36:25;;;;;;;8.53;0.97;;;8.40;99.90;;;;;;5009415;28;20453;-79
2023/12/23 01:38:53;;;;;;;0.87;0.30;;;8.30;99.90;;;;;;4994859;28;20442;-79
2023/12/23 01:41:20;;;;;;;0.50;0.10;;;8.30;99.90;;;;;;4993403;28;20827;-80
2023/12/23 01:43:50;;;;;;;0.50;0.10;;;8.30;99.90;;;;;;4999498;28;20489;-80
2023/12/23 01:46:18;;;;;;;0.60;0.20;;;8.40;99.90;;;;;;4993123;28;20503;-80
2023/12/23 01:48:46;;;;;;;9.50;0.87;;;;;;;;;;4997083;28;20453;-81
2023/12/23 01:51:15;;;;;;;0.50;0.10;;;8.40;99.90;;;;;;4981004;28;20951;-79
2023/12/23 01:53:44;;;;;;;0.50;0.10;;;;;;;;;;4984092;28;20512;-81
2023/12/23 01:56:13;;;;;;;0.90;0.27;;;8.40;99.90;;;;;;4994015;28;20485;-81
2023/12/23 01:58:41;;;;;;;0.50;0.10;;;;;;;;;;5003956;28;20517;-80
2023/12/23 02:01:10;;;;;;;0.50;0.10;;;8.40;99.90;;;;;;4998834;28;20480;-80
2023/12/23 02:03:38;;;;;;;0.50;0.10;;;8.50;99.90;;;;;;5005126;28;20445;-80
2023/12/23 02:06:06;;;;;;;0.50;0.20;;;8.50;99.90;;;;;;5000976;28;20444;-81
2023/12/23 02:08:34;;;;;;;0.50;0.10;;;8.50;99.90;;;;;;4998439;28;20451;-81
2023/12/23 02:11:06;;;;;;;0.50;0.10;;;8.50;99.90;;;;;;5011009;28;20464;-80
2023/12/23 02:13:41;;;;;;;1.57;0.30;;;8.50;99.90;;;;;;5014046;28;20473;-81
2023/12/23 02:16:12;;;;;;;0.53;0.20;;;8.40;99.90;;;;;;4994621;28;20444;-79
2023/12/23 02:18:40;;;;;;;0.50;0.10;;;8.40;99.90;;;;;;5002834;28;20456;-81
2023/12/23 02:21:09;;;;;;;0.70;0.40;;;8.40;99.90;;;;;;5001224;28;20845;-80
2023/12/23 02:23:37;;;;;;;0.70;0.20;;;8.40;99.90;;;;;;5000526;28;20541;-80
2023/12/23 02:26:09;;;;;;;0.50;0.10;;;8.40;99.90;;;;;;4999609;28;20892;-79
2023/12/23 02:28:39;;;;;;;0.50;0.20;;;8.50;99.90;;;;;;4999286;28;20901;-79
2023/12/23 02:31:08;;;;;;;0.50;0.17;;;8.30;99.90;;;;;;5007234;28;20449;-80
2023/12/23 02:33:37;;;;;;;0.50;0.20;;;8.30;99.90;;;;;;5001778;28;20461;-80
2023/12/23 02:36:06;;;;;;;0.50;0.20;;;;;;;;;;4998493;28;20443;-80
2023/12/23 02:38:35;;;;;;;0.50;0.20;;;8.20;99.90;;;;;;4998024;28;21010;-80
2023/12/23 02:41:03;;;;;;;0.50;0.20;;;8.20;99.90;;;;;;4991004;28;20506;-80
2023/12/23 02:43:31;;;;;;;0.50;0.20;;;8.20;99.90;;;;;;4999613;28;20463;-80
2023/12/23 02:45:59;;;;;;;0.50;0.10;;;8.20;99.90;;;;;;4998938;28;20869;-80
2023/12/23 02:48:26;;;;;;;0.50;0.10;;;8.30;99.90;;;;;;4999351;28;20551;-80
2023/12/23 02:50:54;;;;;;;0.50;0.20;;;8.30;99.90;;;;;;4999632;28;20438;-80
2023/12/23 02:53:22;;;;;;;0.50;0.10;;;8.30;99.90;;;;;;5002600;28;20855;-79
2023/12/23 02:55:52;;;;;;;0.70;0.20;;;8.30;99.90;;;;;;5003476;28;20463;-80
2023/12/23 02:58:20;;;;;;;0.50;0.10;;;;;;;;;;5003046;28;20485;-80
2023/12/23 03:00:48;;;;;;;0.60;0.20;;;8.30;99.90;;;;;;4994206;28;20523;-79
2023/12/23 03:03:16;;;;;;;0.50;0.20;;;8.20;99.90;;;;;;4991684;28;20453;-80
2023/12/23 03:05:44;;;;;;;0.50;0.10;;;8.20;99.90;;;;;;5000068;28;20960;-80
2023/12/23 03:08:11;;;;;;;0.50;0.20;;;8.30;99.90;;;;;;5000763;28;20506;-80
2023/12/23 03:10:40;;;;;;;0.70;0.37;;;;;;;;;;5000023;28;20544;-80
2023/12/23 03:13:09;;;;;;;0.50;0.20;;;8.30;99.90;;;;;;5001903;28;20438;-79
2023/12/23 03:15:37;;;;;;;1.00;0.23;;;8.30;99.90;;;;;;5002005;28;20467;-79
2023/12/23 03:18:05;;;;;;;0.60;0.20;;;8.30;99.90;;;;;;4997715;28;20466;-80
2023/12/23 03:20:33;;;;;;;7.57;0.40;;;8.30;99.90;;;;;;5002909;28;20453;-80
2023/12/23 03:23:03;;;;;;;0.50;0.20;;;8.30;99.90;;;;;;5007041;28;20540;-80
2023/12/23 03:25:31;;;;;;;0.67;0.20;;;8.40;99.90;;;;;;5005220;28;20517;-81
2023/12/23 03:27:58;;;;;;;0.50;0.10;;;8.40;99.90;;;;;;5007227;28;20464;-82
2023/12/23 03:30:28;;;;;;;0.50;0.10;;;8.40;99.90;;;;;;5003856;28;20464;-81
2023/12/23 03:32:56;;;;;;;0.50;0.10;;;8.50;99.90;;;;;;4993467;28;20446;-80
2023/12/23 03:35:24;;;;;;;0.53;0.23;;;8.50;99.90;;;;;;4998490;28;20446;-80
2023/12/23 03:37:52;;;;;;;0.50;0.10;;;;;;;;;;5012135;28;20472;-80
2023/12/23 03:40:21;;;;;;;0.50;0.10;;;8.60;99.90;;;;;;5005626;28;20446;-80
2023/12/23 03:42:49;;;;;;;0.50;0.10;;;8.60;99.90;;;;;;5013417;28;20458;-80
2023/12/23 03:45:19;;;;;;;0.50;0.10;;;8.70;99.90;;;;;;5017338;28;20450;-81
2023/12/23 03:47:49;;;;;;;0.50;0.10;;;;;;;;;;5008310;28;20467;-81
2023/12/23 03:50:17;;;;;;;0.50;0.10;;;8.70;99.90;;;;;;5017526;28;20437;-81
2023/12/23 03:52:45;;;;;;;0.50;0.10;;;;;;;;;;5001354;28;20438;-81
2023/12/23 03:55:14;;;;;;;0.50;0.10;;;;;;;;;;5015836;28;20481;-81
2023/12/23 03:57:44;;;;;;;0.50;0.20;;;;;;;;;;5008938;28;20493;-81
2023/12/23 04:00:13;;;;;;;0.50;0.20;;;8.60;99.90;;;;;;5009156;28;20454;-80
2023/12/23 04:02:41;;;;;;;0.50;0.10;;;8.60;99.90;;;;;;5005763;28;20478;-81
2023/12/23 04:05:11;;;;;;;2.80;0.30;;;8.60;99.90;;;;;;4993291;28;20462;-81
2023/12/23 04:07:39;;;;;;;0.50;0.20;;;8.50;99.90;;;;;;4987632;28;20476;-80
2023/12/23 04:10:07;;;;;;;0.50;0.10;;;8.50;99.90;;;;;;4998522;28;20437;-81
2023/12/23 04:12:35;;;;;;;0.50;0.20;;;8.40;99.90;;;;;;4998607;28;20519;-81
2023/12/23 04:15:05;;;;;;;1.73;0.40;;;8.40;99.90;;;;;;5002246;28;20459;-80
2023/12/23 04:17:33;;;;;;;1.17;0.73;;;8.40;99.90;;;;;;4997038;28;20475;-80
2023/12/23 04:20:01;;;;;;;0.70;0.40;;;;;;;;;;5003885;28;20497;-80
2023/12/23 04:22:31;;;;;;;4.20;1.07;;;;;;;;;;5005643;28;20486;-80
2023/12/23 04:24:59;;;;;;;0.50;0.20;;;8.50;99.90;;;;;;4993541;28;20478;-79
2023/12/23 04:27:27;;;;;;;0.50;0.20;;;;;;;;;;4999650;28;20474;-80
2023/12/23 04:29:55;;;;;;;0.70;0.50;;;8.60;99.90;;;;;;5002023;28;20704;-81
2023/12/23 04:32:23;;;;;;;0.50;0.20;;;8.50;99.90;;;;;;5007264;28;20429;-80
2023/12/23 04:34:51;;;;;;;1.90;0.40;;;8.50;99.90;;;;;;5006389;28;20504;-78
2023/12/23 04:37:19;;;;;;;1.17;0.63;;;8.60;99.90;;;;;;4984269;28;20471;-80
2023/12/23 04:39:48;;;;;;;9.43;2.37;;;8.60;99.90;;;;;;4995902;28;20547;-80
2023/12/23 04:42:16;;;;;;;0.50;0.20;;;8.60;99.90;;;;;;4992837;28;20537;-81
2023/12/23 04:44:44;;;;;;;0.50;0.20;;;8.60;99.90;;;;;;5001601;28;20453;-80
2023/12/23 04:47:12;;;;;;;0.60;0.20;;;8.60;99.90;;;;;;5000829;28;20551;-80
2023/12/23 04:49:40;;;;;;;0.80;0.30;;;8.60;99.90;;;;;;4987742;28;20520;-79
2023/12/23 04:52:08;;;;;;;0.80;0.43;;;8.70;99.90;;;;;;4998682;28;20443;-79
2023/12/23 04:54:36;;;;;;;0.50;0.30;;;;;;;;;;4984993;28;20446;-81
2023/12/23 04:57:06;;;;;;;0.87;0.50;;;8.70;99.90;;;;;;4999468;28;20556;-79
2023/12/23 04:59:33;;;;;;;0.60;0.30;;;8.80;99.90;;;;;;4988676;28;20490;-79
2023/12/23 05:02:03;;;;;;;0.60;0.37;;;8.90;99.90;;;;;;4979663;28;20925;-80
2023/12/23 05:04:31;;;;;;;0.50;0.20;;;8.90;99.90;;;;;;4984892;28;20787;-80
2023/12/23 05:06:59;;;;;;;0.70;0.20;;;9.00;99.90;;;;;;5003292;28;20472;-79
2023/12/23 05:09:27;;;;;;;1.43;0.60;;;9.00;99.90;;;;;;4995374;28;20521;-80
2023/12/23 05:11:54;;;;;;;0.60;0.30;;;9.00;99.90;;;;;;4994335;28;20433;-80
2023/12/23 05:14:24;;;;;;;1.20;0.60;;;9.10;99.90;;;;;;4998308;28;20448;-79
2023/12/23 05:16:51;;;;;;;0.90;0.27;;;9.10;99.90;;;;;;4989264;28;20461;-79
2023/12/23 05:19:19;;;;;;;0.70;0.23;;;9.20;99.90;;;;;;4994941;28;20442;-79
2023/12/23 05:21:47;;;;;;;11.00;0.50;;;8.30;99.90;;;;;;4999380;28;20449;-79
2023/12/23 05:24:15;;;;;;;0.50;0.20;;;9.20;99.90;;;;;;4992718;28;20816;-79
2023/12/23 05:26:43;;;;;;;0.50;0.20;;;9.20;99.90;;;;;;4997081;28;20488;-79
2023/12/23 05:29:11;;;;;;;0.90;0.87;;;9.20;99.90;;;;;;4996469;28;20455;-79
2023/12/23 05:31:41;;;;;;;2.00;0.60;;;9.20;99.90;;;;;;4993263;28;20967;-79
2023/12/23 05:34:10;;;;;;;2.10;0.57;;;9.20;99.90;;;;;;4994785;28;20448;-79
2023/12/23 05:36:38;;;;;;;2.83;1.33;;;9.30;99.90;;;;;;4993964;28;20559;-79
2023/12/23 05:39:06;;;;;;;0.70;0.50;;;9.30;99.90;;;;;;4996561;28;20470;-79
2023/12/23 05:41:35;;;;;;;1.67;0.30;;;;;;;;;;5002675;28;20832;-79
2023/12/23 05:44:03;;;;;;;0.50;0.20;;;9.30;99.90;;;;;;4996330;28;20488;-79
2023/12/23 05:46:34;;;;;;;1.00;0.37;;;9.30;99.90;;;;;;4999743;28;20453;-79
2023/12/23 05:49:04;;;;;;;1.43;0.47;;;9.30;99.90;;;;;;5003517;28;20496;-79
2023/12/23 05:51:32;;;;;;;0.90;0.23;;;;;;;;;;4999765;28;20988;-79
2023/12/23 05:54:00;;;;;;;4.50;1.33;;;;;;;;;;4995391;28;20476;-77
2023/12/23 05:56:28;;;;;;;0.50;0.20;;;9.20;99.90;;;;;;4989089;28;20581;-78
2023/12/23 05:58:57;;;;;;;2.13;0.63;;;;;;;;;;4989851;28;20940;-79
2023/12/23 06:01:25;;;;;;;3.57;0.70;;;9.20;99.90;;;;;;4987725;28;20999;-79
2023/12/23 06:03:53;;;;;;;1.80;0.50;;;9.20;99.90;;;;;;4996628;28;20919;-78
2023/12/23 06:06:22;;;;;;;0.80;0.20;;;9.10;99.90;;;;;;4992894;28;20502;-79
2023/12/23 06:08:50;;;;;;;1.23;0.37;;;9.10;99.90;;;;;;4982832;28;20460;-79
2023/12/23 06:11:18;;;;;;;0.80;0.37;;;;;;;;;;4986094;28;20443;-79
2023/12/23 06:13:46;;;;;;;0.50;0.10;;;9.10;99.90;;;;;;4989207;28;20450;-79
2023/12/23 06:16:14;;;;;;;0.50;0.20;;;9.10;99.90;;;;;;4986665;28;20482;-78
2023/12/23 06:18:42;;;;;;;0.50;0.20;;;9.00;99.90;;;;;;4993589;28;20809;-78
2023/12/23 06:21:10;;;;;;;2.30;0.40;;;9.00;99.90;;;;;;4996889;28;20441;-79
2023/12/23 06:23:39;;;;;;;0.60;0.30;;;9.00;99.90;;;;;;5001446;28;20487;-79
2023/12/23 06:26:07;;;;;;;0.57;0.23;;;9.00;99.90;;;;;;4999682;28;20480;-80
2023/12/23 06:28:35;;;;;;;6.13;0.47;;;9.00;99.90;;;;;;4995112;28;20476;-80
2023/12/23 06:31:03;;;;;;;0.50;0.20;;;8.90;99.90;;;;;;4994152;28;20449;-80
2023/12/23 06:33:31;;;;;;;1.33;0.50;;;9.00;99.90;;;;;;4998989;28;20454;-80
2023/12/23 06:35:59;;;;;;;1.10;0.67;;;;;;;;;;5000794;28;20450;-80
2023/12/23 06:38:27;;;;;;;0.50;0.20;;;8.90;99.90;;;;;;4995454;28;20460;-79
2023/12/23 06:40:57;;;;;;;0.50;0.20;;;9.00;99.90;;;;;;5009427;28;20452;-80
2023/12/23 06:43:25;;;;;;;0.60;0.20;;;;;;;;;;5002305;28;20488;-78
2023/12/23 06:46:13;;;;;;;0.97;0.37;;;9.00;99.90;;;;;;5015716;28;20462;-78
2023/12/23 06:48:41;;;;;;;0.50;0.20;;;9.00;99.90;;;;;;5016764;28;20478;-78
2023/12/23 06:51:09;;;;;;;0.80;0.53;;;;;;;;;;5002175;28;20454;-78
2023/12/23 06:53:37;;;;;;;0.77;0.30;;;9.10;99.90;;;;;;4996288;28;20438;-78
2023/12/23 06:56:08;;;;;;;0.50;0.10;;;;;;;;;;4997357;28;20439;-78
2023/12/23 06:58:36;;;;;;;0.60;0.30;;;9.10;99.90;;;;;;4999148;28;20446;-77
2023/12/23 07:01:04;;;;;;;0.80;0.33;;;9.20;99.90;;;;;;4989920;28;20477;-78
2023/12/23 07:03:33;;;;;;;0.70;0.30;;;;;;;;;;5000298;28;20519;-79
2023/12/23 07:06:01;;;;;;;7.40;0.83;;;9.30;99.90;;;;;;5000467;28;20505;-79
2023/12/23 07:08:29;;;;;;;0.50;0.10;;;;;;;;;;4989375;28;20463;-79
2023/12/23 07:10:57;;;;;;;0.80;0.23;;;9.20;99.90;;;;;;4994657;28;20532;-79
2023/12/23 07:13:27;;;;;;;0.60;0.30;;;9.30;99.90;;;;;;4998884;28;20503;-79
2023/12/23 07:15:55;;;;;;;0.70;0.30;;;;;;;;;;4996330;28;20442;-80
2023/12/23 07:18:23;;;;;;;1.43;0.43;;;9.30;99.90;;;;;;4997229;28;20470;-78
2023/12/23 07:20:51;;;;;;;1.63;1.23;;;9.30;99.90;;;;;;4988462;28;20441;-79
2023/12/23 07:23:19;;;;;;;1.10;0.50;;;9.40;99.90;;;;;;4993345;28;20511;-79
2023/12/23 07:25:47;;;;;;;0.80;0.30;;;9.40;99.90;;;;;;4989650;28;20436;-79
2023/12/23 07:28:14;;;;;;;0.70;0.27;;;9.40;99.90;;;;;;4994067;28;20465;-79
2023/12/23 07:30:45;;;;;;;0.60;0.20;;;9.40;99.90;;;;;;4999009;28;20466;-78
2023/12/23 07:33:13;;;;;;;0.60;0.27;;;9.50;99.90;;;;;;4999100;28;21025;-79
2023/12/23 07:35:42;;;;;;;0.60;0.40;;;9.40;99.90;;;;;;4999908;28;20529;-80
2023/12/23 07:38:12;;;;;;;3.83;2.03;;;9.40;99.90;;;;;;4998712;28;20473;-79
2023/12/23 07:40:40;;;;;;;1.47;0.57;;;;;;;;;;5001625;28;20929;-78
2023/12/23 07:43:08;;;;;;;0.50;0.20;;;9.40;99.90;;;;;;5003310;28;20438;-78
2023/12/23 07:45:36;;;;;;;0.50;0.10;;;9.40;99.90;;;;;;5004125;28;20525;-79
2023/12/23 07:48:06;;;;;;;0.60;0.40;;;9.50;99.90;;;;;;5006331;28;20460;-79
2023/12/23 07:50:34;;;;;;;0.50;0.20;;;9.40;99.90;;;;;;5006559;28;20452;-79
2023/12/23 07:53:02;;;;;;;3.80;0.20;;;9.40;99.90;;;;;;5003685;28;20561;-79
2023/12/23 07:55:30;;;;;;;0.50;0.20;;;9.40;99.90;;;;;;4998221;28;20678;-78
2023/12/23 07:57:59;;;;;;;0.50;0.10;;;9.40;99.90;;;;;;4998830;28;20486;-78
2023/12/23 08:00:27;;;;;;;0.50;0.10;;;9.40;99.90;;;;;;4998782;28;21011;-78
2023/12/23 08:02:55;;;;;;;0.50;0.20;;;9.40;99.90;;;;;;5002957;28;20454;-79
2023/12/23 08:05:24;;;;;;;0.50;0.20;;;9.40;99.90;;;;;;5003023;28;20509;-79
2023/12/23 08:07:53;;;;;;;3.70;0.40;;;;;;;;;;5001562;28;20496;-79
2023/12/23 08:10:21;;;;;;;0.50;0.30;;;9.40;99.90;;;;;;5002005;28;20457;-79
2023/12/23 08:12:49;;;;;;;0.80;0.43;;;9.40;99.90;;;;;;5005146;28;20469;-79
2023/12/23 08:15:18;;;;;;;0.90;0.27;;;9.40;99.90;;;;;;5010588;28;20430;-79
2023/12/23 08:17:45;;;;;;;0.70;0.30;;;9.30;99.90;;;;;;5010449;28;20530;-80
2023/12/23 08:20:14;;;;;;;0.90;0.23;;;9.30;99.90;;;;;;5002089;28;20452;-79
2023/12/23 08:22:43;;;;;;;0.67;0.37;;;9.30;99.90;;;;;;5008962;28;20479;-79
2023/12/23 08:25:11;;;;;;;0.50;0.10;;;9.30;99.90;;;;;;5012061;28;20548;-79
2023/12/23 08:27:39;;;;;;;0.70;0.43;;;;;;;;;;5005269;28;20463;-78
2023/12/23 08:30:08;;;;;;;0.50;0.20;;;9.30;99.90;;;;;;5004167;28;20441;-77
2023/12/23 08:32:36;;;;;;;0.50;0.10;;;9.40;99.90;;;;;;5004511;28;20445;-79
2023/12/23 08:35:05;;;;;;;1.27;0.30;;;9.40;99.90;;;;;;5005459;28;20447;-79
2023/12/23 08:37:34;;;;;;;0.50;0.20;;;9.30;99.90;;;;;;5002116;28;20471;-78
2023/12/23 08:40:05;;;;;;;0.50;0.20;;;9.30;99.90;;;;;;5001288;28;20470;-79
2023/12/23 08:42:32;;;;;;;1.13;0.50;;;9.30;99.90;;;;;;4999427;28;20994;-78
2023/12/23 08:45:01;;;;;;;0.50;0.20;;;;;;;;;;4998844;28;20579;-79
2023/12/23 08:47:29;;;;;;;6.27;0.40;;;9.30;99.90;;;;;;4997675;28;20471;-79
2023/12/23 08:49:57;;;;;;;0.50;0.20;;;;;;;;;;4996719;28;20876;-79
2023/12/23 08:52:25;;;;;;;1.53;0.23;;;9.40;99.90;;;;;;4996347;28;20438;-78
2023/12/23 08:54:53;;;;;;;0.90;0.70;;;9.40;99.90;;;;;;4998193;28;20519;-79
2023/12/23 08:57:22;;;;;;;0.50;0.20;;;9.40;99.90;;;;;;4998197;28;20578;-79
2023/12/23 08:59:50;;;;;;;1.10;0.30;;;9.40;99.90;;;;;;4993911;28;20485;-80
2023/12/23 09:02:18;;;;;;;0.60;0.30;;;;;;;;;;4994909;28;20531;-79
2023/12/23 09:04:46;;;;;;;0.70;0.50;;;9.40;99.90;;;;;;4995096;28;20530;-79
2023/12/23 09:07:15;;;;;;;8.73;0.40;;;9.40;99.90;;;;;;5001445;28;20473;-79
2023/12/23 09:09:43;;;;;;;1.43;0.30;;;9.40;99.90;;;;;;5002149;28;21009;-79
2023/12/23 09:12:11;;;;;;;0.50;0.10;;;9.40;99.90;;;;;;5001906;28;20449;-79
2023/12/23 09:14:40;;;;;;;0.50;0.20;;;9.40;99.90;;;;;;5004549;28;20494;-79
2023/12/23 09:17:08;;;;;;;0.97;0.53;;;;;;;;;;5001237;28;20493;-79
2023/12/23 09:19:36;;;;;;;1.17;0.70;;;9.40;99.90;;;;;;5000451;28;20476;-79
2023/12/23 09:22:04;;;;;;;1.00;0.50;;;9.40;99.90;;;;;;5000667;28;20461;-79
2023/12/23 09:24:32;;;;;;;1.00;0.30;;;9.40;99.90;;;;;;4993470;28;20481;-79
2023/12/23 09:27:01;;;;;;;0.80;0.70;;;;;;;;;;4999436;28;20538;-79
2023/12/23 09:29:29;;;;;;;1.87;0.30;;;;;;;;;;5001874;28;20450;-79
2023/12/23 09:31:59;;;;;;;0.70;0.40;;;9.30;99.90;;;;;;4999252;28;20456;-79
2023/12/23 09:34:27;;;;;;;0.50;0.20;;;9.30;99.90;;;;;;5001092;28;20462;-80
2023/12/23 09:36:55;;;;;;;1.43;0.63;;;9.30;99.90;;;;;;5012834;28;20472;-79
2023/12/23 09:39:23;;;;;;;0.70;0.40;;;9.30;99.90;;;;;;5006741;28;20449;-79
2023/12/23 09:41:51;;;;;;;0.50;0.20;;;9.30;99.90;;;;;;4999657;28;20446;-80
2023/12/23 09:44:19;;;;;;;0.50;0.10;;;9.30;99.90;;;;;;5000684;28;20480;-80
2023/12/23 09:46:47;;;;;;;0.87;0.20;;;9.20;99.90;;;;;;5001034;28;20530;-79
2023/12/23 09:49:16;;;;;;;0.50;0.10;;;9.20;99.90;;;;;;5002043;28;20463;-78
2023/12/23 09:51:45;;;;;;;2.10;0.20;;;9.10;99.90;;;;;;4987023;28;20444;-78
2023/12/23 09:54:20;;;;;;;0.50;0.10;;;9.10;99.90;;;;;;4995175;28;20447;-78
2023/12/23 09:56:48;;;;;;;0.60;0.30;;;9.20;99.90;;;;;;5007053;28;20480;-79
2023/12/23 09:59:16;;;;;;;0.50;0.20;;;9.20;99.90;;;;;;5005026;28;20455;-79
2023/12/23 10:01:45;;;;;;;0.60;0.40;;;;;;;;;;4995450;28;20481;-78
2023/12/23 10:04:13;;;;;;;1.30;0.30;;;9.10;99.90;;;;;;5003361;28;20454;-80
2023/12/23 10:06:43;;;;;;;1.47;0.40;;;9.10;99.90;;;;;;5004027;28;20571;-79
2023/12/23 10:09:11;;;;;;;0.50;0.10;;;9.00;99.90;;;;;;5006025;28;20546;-77
2023/12/23 10:11:42;;;;;;;0.70;0.30;;;9.10;99.90;;;;;;5008806;28;20465;-77
2023/12/23 10:14:10;;;;;;;0.60;0.30;;;9.10;99.90;;;;;;5009998;28;20466;-77
2023/12/23 10:16:38;;;;;;;1.67;0.20;;;;;;;;;;5005770;28;20550;-78
2023/12/23 10:19:11;;;;;;;1.33;0.30;;;;;;;;;;5006537;28;20537;-79
2023/12/23 10:21:41;;;;;;;0.50;0.20;;;9.20;99.90;;;;;;5006030;28;20513;-79
2023/12/23 10:24:10;;;;;;;0.50;0.20;;;9.20;99.90;;;;;;5005484;28;20524;-78
2023/12/23 10:26:40;;;;;;;3.07;0.80;;;9.20;99.90;;;;;;5006776;28;20517;-79
2023/12/23 10:29:09;;;;;;;0.60;0.40;;;9.30;99.90;;;;;;5005712;28;20449;-79
2023/12/23 10:31:41;;;;;;;0.50;0.20;;;9.40;99.90;;;;;;5001778;28;20445;-78
2023/12/23 10:34:12;;;;;;;0.50;0.10;;;9.40;99.90;;;;;;5008409;28;20448;-78
2023/12/23 10:36:42;;;;;;;1.37;0.40;;;9.50;99.90;;;;;;5000364;28;20522;-78
2023/12/23 10:39:22;;;;;;;0.50;0.13;;;9.50;99.90;;;;;;5009210;28;20510;-78
2023/12/23 10:41:56;;;;;;;1.70;1.27;;;9.50;99.90;;;;;;5003628;28;20444;-79
2023/12/23 10:44:25;;;;;;;0.50;0.10;;;;;;;;;;4993202;28;20446;-79
2023/12/23 10:46:55;;;;;;;0.50;0.20;;;9.70;99.90;;;;;;5003888;28;20585;-77
2023/12/23 10:49:24;;;;;;;0.70;0.20;;;9.60;99.90;;;;;;5001890;28;20469;-78
2023/12/23 10:51:54;;;;;;;0.50;0.10;;;9.70;99.90;;;;;;4987608;28;20454;-78
2023/12/23 10:54:27;;;;;;;0.50;0.20;;;9.70;99.90;;;;;;4986623;28;20525;-79
2023/12/23 10:56:57;;;;;;;0.50;0.20;;;9.70;99.90;;;;;;4996506;28;20489;-78
2023/12/23 10:59:25;;;;;;;0.50;0.20;;;9.70;99.90;;;;;;5003441;28;20970;-79
2023/12/23 11:01:56;;;;;;;0.50;0.10;;;9.70;99.90;;;;;;5003041;28;20830;-79
2023/12/23 11:04:26;;;;;;;0.70;0.20;;;9.80;99.90;;;;;;5003991;28;20542;-79
2023/12/23 11:06:56;;;;;;;3.13;0.30;;;9.80;99.90;;;;;;5000462;28;20478;-78
2023/12/23 11:09:30;;;;;;;0.50;0.10;;;9.80;99.90;;;;;;4992076;28;20450;-79
2023/12/23 11:11:58;;;;;;;0.50;0.10;;;9.80;99.90;;;;;;5011109;28;20467;-78
2023/12/23 11:14:26;;;;;;;0.50;0.10;;;9.80;99.90;;;;;;5005490;28;20475;-80
2023/12/23 11:16:56;;;;;;;0.70;0.30;;;9.80;99.90;;;;;;5011354;28;20462;-79
2023/12/23 11:19:26;;;;;;;0.50;0.10;;;9.80;99.90;;;;;;5008083;28;21024;-80
2023/12/23 11:22:22;;;;;;;0.60;0.30;;;9.80;99.90;;;;;;5006943;28;20442;-79
2023/12/23 11:24:52;;;;;;;0.60;0.20;;;9.80;99.90;;;;;;5002793;28;20442;-79
2023/12/23 11:27:36;;;;;;;0.50;0.20;;;9.80;99.90;;;;;;4998167;28;20577;-78
2023/12/23 11:30:07;;;;;;;1.80;0.77;;;9.80;99.90;;;;;;5007503;28;20453;-81
2023/12/23 11:32:36;;;;;;;0.50;0.20;;;9.80;99.90;;;;;;5008943;28;20453;-79
2023/12/23 11:35:06;;;;;;;0.60;0.10;;;9.80;99.90;;;;;;5005508;28;20482;-79
2023/12/23 11:37:52;;;;;;;0.50;0.20;;;9.80;99.90;;;;;;5000086;28;20473;-78
2023/12/23 11:40:22;;;;;;;0.50;0.10;;;9.80;99.90;;;;;;5001034;28;20474;-79
2023/12/23 11:42:51;;;;;;;0.70;0.60;;;9.80;99.90;;;;;;4988434;28;20555;-79
2023/12/23 11:45:19;;;;;;;0.50;0.10;;;9.80;99.90;;;;;;5002363;28;20457;-79
2023/12/23 11:47:50;;;;;;;0.50;0.20;;;9.90;99.90;;;;;;5002479;28;20462;-78
2023/12/23 11:50:18;;;;;;;0.50;0.20;;;9.90;99.90;;;;;;5003171;28;20831;-79
2023/12/23 11:52:46;;;;;;;1.07;0.40;;;;;;;;;;5003195;28;20430;-78
2023/12/23 11:55:16;;;;;;;0.50;0.20;;;9.90;99.90;;;;;;4983923;28;20511;-79
2023/12/23 11:57:45;;;;;;;0.60;0.20;;;9.90;99.90;;;;;;5001356;28;20570;-78
2023/12/23 12:00:16;;;;;;;0.87;0.87;;;9.90;99.90;;;;;;4994159;28;20457;-78
2023/12/23 12:02:44;;;;;;;0.60;0.23;;;9.90;99.90;;;;;;5000807;28;20450;-79
2023/12/23 12:05:12;;;;;;;0.50;0.10;;;10.00;99.90;;;;;;4993985;28;20451;-78
2023/12/23 12:07:41;;;;;;;0.50;0.10;;;9.90;99.90;;;;;;4994483;28;20526;-77
2023/12/23 12:10:09;;;;;;;1.57;1.33;;;10.00;99.90;;;;;;4994835;28;20451;-77
2023/12/23 12:12:37;;;;;;;6.93;0.50;;;9.90;99.90;;;;;;4988150;28;20469;-77
2023/12/23 12:15:08;;;;;;;0.50;0.20;;;10.00;99.90;;;;;;4995885;28;20505;-78
2023/12/23 12:17:36;;;;;;;0.50;0.10;;;10.00;99.90;;;;;;4997093;28;21053;-79
2023/12/23 12:20:05;;;;;;;2.93;0.47;;;10.00;99.90;;;;;;4988849;28;20535;-78
2023/12/23 12:22:33;;;;;;;0.50;0.20;;;10.00;99.90;;;;;;4992365;28;20830;-78
2023/12/23 12:25:01;;;;;;;0.50;0.20;;;10.10;99.90;;;;;;4989315;28;20541;-77
2023/12/23 12:27:31;;;;;;;0.60;0.37;;;10.10;99.90;;;;;;4997847;28;20500;-76
2023/12/23 12:29:59;;;;;;;0.50;0.20;;;10.10;99.90;;;;;;5017652;28;20442;-77
2023/12/23 12:32:28;;;;;;;0.57;0.23;;;10.20;99.90;;;;;;5017516;28;20446;-77
2023/12/23 12:35:01;;;;;;;2.47;2.13;;;10.20;99.90;;;;;;5003137;28;20437;-77
2023/12/23 12:37:30;;;;;;;0.70;0.37;;;10.30;99.90;;;;;;5002254;28;20461;-79
2023/12/23 12:39:58;;;;;;;4.00;0.67;;;10.30;99.90;;;;;;4999053;28;20462;-78
2023/12/23 12:42:30;;;;;;;6.03;1.00;;;10.30;99.90;;;;;;4999731;28;20469;-78
2023/12/23 12:45:01;;;;;;;2.63;0.50;;;10.30;99.90;;;;;;4994079;28;20508;-78
2023/12/23 12:47:30;;;;;;;4.40;0.50;;;10.40;99.90;;;;;;4995404;28;20519;-78
2023/12/23 12:50:00;;;;;;;0.87;0.40;;;10.40;99.90;;;;;;4990656;28;20451;-79
2023/12/23 12:52:35;;;;;;;1.67;0.60;;;10.40;99.90;;;;;;4997570;28;20537;-78
2023/12/23 12:55:04;;;;;;;0.60;0.30;;;10.40;99.90;;;;;;5005804;28;20862;-79
2023/12/23 12:57:33;;;;;;;0.50;0.10;;;10.40;99.90;;;;;;5002441;28;20488;-79
2023/12/23 13:00:07;;;;;;;0.70;0.30;;;;;;;;;;5007613;28;20446;-79
2023/12/23 13:02:36;;;;;;;1.47;0.27;;;10.50;99.90;;;;;;4998210;28;20490;-79
2023/12/23 13:05:05;;;;;;;0.50;0.10;;;10.50;99.90;;;;;;4990987;28;20819;-79
2023/12/23 13:07:33;;;;;;;0.60;0.20;;;10.50;99.90;;;;;;5000235;28;21195;-79
2023/12/23 13:10:02;;;;;;;9.03;0.30;;;;;;;;;;4999598;28;20958;-79
2023/12/23 13:12:30;;;;;;;0.50;0.10;;;10.40;99.90;;;;;;4992857;28;20554;-80
2023/12/23 13:14:58;;;;;;;1.07;0.33;;;10.50;99.90;;;;;;4993081;28;20461;-79
2023/12/23 13:17:26;;;;;;;0.50;0.20;;;10.50;99.90;;;;;;4988767;28;20486;-78